Hearn, Arkansas
Current Conditions -  °F | °C
As of 6:24 AM on Saturday 25 Oct 2014 (Local Time) from KADF Reporting Station
Haze Haze  
Wind Chill: 52°   Ceiling: Unl
Heat Index: 52°   Visibility: 1.2mi
Dew Point: 52°   Wind: 0mph
Humidity: 100%   Direction: NA
Pressure: 30.13"   Gusts: NA
Location:  34.0941°N, 93.0475°W
Report Text: KADF 251124Z AUTO 00000KT 1 1/4SM BR CLR 11/11 A3013 RMK AO2
Loading
Personal Weather Stations






























Interactive Weather Map
Tropical Storm Tracking
New forecast layout! Learn more

10-Day Weather Forecast

Advertisements
Track Severe Weather on mobile